Time;durP1;ratioP1;P1;durP2;ratioP2;P2;SDS_P1;SDS_P2;PMS_P1;PMS_P2;Temp;Humidity;BMP_temperature;BMP_pressure;BME280_temperature;BME280_humidity;BME280_pressure;Samples;Min_cycle;Max_cycle;Signal;HPM_P1;HPM_P2
2022/05/19 00:02:18;;;;;;;;;10.67;9.00;;;;;;;;5077574;27;45375;-78
2022/05/19 00:04:44;;;;;;;;;7.33;7.33;;;;;;;;5077117;27;46363;-78
2022/05/19 00:07:09;;;;;;;;;9.67;8.33;;;;;;;;5077177;27;45280;-78
2022/05/19 00:09:35;;;;;;;;;11.00;9.00;;;;;;;;5077358;27;45255;-78
2022/05/19 00:12:03;;;;;;;;;7.33;7.33;;;;;;;;5077614;27;45221;-78
2022/05/19 00:14:28;;;;;;;;;11.33;9.67;;;;;;;;5076949;27;47018;-78
2022/05/19 00:16:56;;;;;;;;;7.33;6.00;;;;;;;;5077032;28;45338;-78
2022/05/19 00:19:21;;;;;;;;;7.67;7.33;;;;;;;;5077182;27;45279;-78
2022/05/19 00:21:47;;;;;;;;;10.33;8.00;;;;;;;;5078356;27;45290;-78
2022/05/19 00:24:12;;;;;;;;;9.00;8.00;;;;;;;;5080563;27;47054;-78
2022/05/19 00:26:38;;;;;;;;;14.33;14.33;;;;;;;;5080764;27;45274;-78
2022/05/19 00:29:03;;;;;;;;;8.00;7.00;;;;;;;;5080666;27;45517;-77
2022/05/19 00:31:29;;;;;;;;;7.00;7.00;;;;;;;;5081137;28;45258;-78
2022/05/19 00:33:55;;;;;;;;;11.00;10.00;;;;;;;;5080586;27;47217;-78
2022/05/19 00:36:20;;;;;;;;;11.00;9.33;;;;;;;;5080405;27;45462;-77
2022/05/19 00:38:46;;;;;;;;;10.33;10.33;;;;;;;;5080601;28;45372;-78
2022/05/19 00:41:11;;;;;;;;;12.00;11.67;;;;;;;;5080680;28;45521;-77
2022/05/19 00:43:40;;;;;;;;;11.00;11.00;;;;;;;;5080131;27;45404;-80
2022/05/19 00:46:22;;;;;;;;;12.67;9.33;;;;;;;;5080339;27;45390;-79
2022/05/19 00:48:50;;;;;;;;;10.00;9.67;;;;;;;;5080456;27;45420;-78
2022/05/19 00:51:17;;;;;;;;;10.00;9.00;;;;;;;;5080463;28;45269;-79
2022/05/19 00:53:54;;;;;;;;;9.33;9.00;;;;;;;;5080110;27;46541;-79
2022/05/19 00:56:31;;;;;;;;;9.33;8.00;;;;;;;;5079870;27;45327;-81
2022/05/19 00:58:57;;;;;;;;;8.67;7.33;;;;;;;;5080272;27;45490;-78
2022/05/19 01:01:22;;;;;;;;;7.33;6.67;;;;;;;;5080207;28;45534;-80
2022/05/19 01:03:51;;;;;;;;;8.67;7.00;;;;;;;;5079968;27;46239;-80
2022/05/19 01:06:18;;;;;;;;;7.00;7.00;;;;;;;;5080077;27;45241;-79
2022/05/19 01:08:56;;;;;;;;;5.67;4.00;;;;;;;;5080157;27;45304;-79
2022/05/19 01:11:22;;;;;;;;;6.00;6.00;;;;;;;;5080296;27;45371;-78
2022/05/19 01:13:47;;;;;;;;;6.00;6.00;;;;;;;;5080188;27;46107;-80
2022/05/19 01:16:13;;;;;;;;;8.00;5.00;;;;;;;;5080735;27;45391;-78
2022/05/19 01:18:39;;;;;;;;;4.67;4.67;;;;;;;;5080190;27;45244;-78
2022/05/19 01:21:06;;;;;;;;;6.00;4.33;;;;;;;;5080623;27;45348;-77
2022/05/19 01:23:32;;;;;;;;;9.00;5.00;;;;;;;;5080150;27;47165;-77
2022/05/19 01:26:18;;;;;;;;;11.00;6.00;;;;;;;;5080085;28;45398;-78
2022/05/19 01:28:44;;;;;;;;;6.33;5.00;;;;;;;;5080028;28;45283;-76
2022/05/19 01:31:45;;;;;;;;;5.00;4.00;;;;;;;;5080209;27;45265;-76
2022/05/19 01:34:11;;;;;;;;;3.00;3.00;;;;;;;;4999740;28;47303;-76
2022/05/19 01:36:36;;;;;;;;;3.33;3.00;;;;;;;;5017085;28;45350;-75
2022/05/19 01:39:09;;;;;;;;;5.00;3.33;;;;;;;;5017395;28;45564;-78
2022/05/19 01:41:53;;;;;;;;;4.67;4.00;;;;;;;;5017673;28;45455;-76
2022/05/19 01:44:33;;;;;;;;;3.00;3.00;;;;;;;;5017208;28;46710;-77
2022/05/19 01:47:04;;;;;;;;;6.67;3.67;;;;;;;;5017244;28;45397;-76
2022/05/19 01:49:39;;;;;;;;;6.67;6.67;;;;;;;;5017049;28;45354;-76
2022/05/19 01:52:10;;;;;;;;;5.67;4.00;;;;;;;;5016932;28;45383;-77
2022/05/19 01:54:41;;;;;;;;;5.00;3.67;;;;;;;;5016727;28;46046;-76
2022/05/19 01:57:28;;;;;;;;;3.33;3.33;;;;;;;;5016741;28;45437;-77
2022/05/19 02:00:10;;;;;;;;;4.00;3.67;;;;;;;;5017045;28;45311;-77
2022/05/19 02:02:48;;;;;;;;;3.00;3.00;;;;;;;;5016744;28;45354;-76
2022/05/19 02:05:20;;;;;;;;;2.00;2.00;;;;;;;;5016801;28;45596;-76
2022/05/19 02:07:47;;;;;;;;;5.67;3.67;;;;;;;;5036981;28;45417;-76
2022/05/19 02:10:17;;;;;;;;;7.00;4.00;;;;;;;;5079409;27;45228;-76
2022/05/19 02:12:44;;;;;;;;;4.00;4.00;;;;;;;;5079168;27;45293;-77
2022/05/19 02:15:12;;;;;;;;;4.33;3.00;;;;;;;;5078814;27;45426;-76
2022/05/19 02:17:37;;;;;;;;;5.33;4.00;;;;;;;;5078991;27;45345;-76
2022/05/19 02:20:06;;;;;;;;;2.00;2.00;;;;;;;;5078967;28;45228;-76
2022/05/19 02:22:36;;;;;;;;;4.00;2.00;;;;;;;;5079509;28;45223;-76
2022/05/19 02:25:09;;;;;;;;;3.33;3.33;;;;;;;;5078634;27;46429;-76
2022/05/19 02:27:37;;;;;;;;;3.67;3.00;;;;;;;;5078607;27;45500;-76
2022/05/19 02:30:08;;;;;;;;;3.33;3.33;;;;;;;;5078843;27;45283;-75
2022/05/19 02:32:35;;;;;;;;;3.00;3.00;;;;;;;;5079214;28;45477;-76
2022/05/19 02:35:00;;;;;;;;;6.67;4.33;;;;;;;;5078378;27;46695;-76
2022/05/19 02:37:25;;;;;;;;;6.33;3.00;;;;;;;;5078798;28;45441;-77
2022/05/19 02:39:51;;;;;;;;;4.00;4.00;;;;;;;;5078930;28;45302;-78
2022/05/19 02:42:16;;;;;;;;;4.00;4.00;;;;;;;;5079341;27;45526;-77
2022/05/19 02:44:42;;;;;;;;;3.33;3.33;;;;;;;;5077653;28;45382;-78
2022/05/19 02:47:07;;;;;;;;;4.00;4.00;;;;;;;;5078272;27;45365;-77
2022/05/19 02:49:32;;;;;;;;;4.33;4.33;;;;;;;;5078602;28;45299;-78
2022/05/19 02:51:58;;;;;;;;;6.00;5.00;;;;;;;;5078590;28;45477;-76
2022/05/19 02:54:23;;;;;;;;;5.33;5.00;;;;;;;;5078398;28;46240;-78
2022/05/19 02:56:49;;;;;;;;;7.00;5.00;;;;;;;;5078345;28;45343;-78
2022/05/19 02:59:14;;;;;;;;;7.00;7.00;;;;;;;;5078364;27;45363;-78
2022/05/19 03:01:39;;;;;;;;;6.33;6.33;;;;;;;;5078533;27;45568;-78
2022/05/19 03:04:04;;;;;;;;;5.67;5.67;;;;;;;;5078125;28;45341;-78
2022/05/19 03:06:29;;;;;;;;;6.00;6.00;;;;;;;;5078201;28;45270;-77
2022/05/19 03:08:55;;;;;;;;;6.00;6.00;;;;;;;;5078474;28;45343;-77
2022/05/19 03:11:20;;;;;;;;;6.33;6.33;;;;;;;;5078537;28;45367;-77
2022/05/19 03:13:45;;;;;;;;;6.00;6.00;;;;;;;;5078110;28;45356;-77
2022/05/19 03:16:10;;;;;;;;;5.67;5.67;;;;;;;;5078095;28;45311;-77
2022/05/19 03:18:36;;;;;;;;;7.00;5.33;;;;;;;;5078314;28;45284;-77
2022/05/19 03:21:01;;;;;;;;;5.33;5.33;;;;;;;;5078114;28;45497;-77
2022/05/19 03:23:26;;;;;;;;;6.00;6.00;;;;;;;;5077938;27;45484;-77
2022/05/19 03:25:53;;;;;;;;;5.33;5.33;;;;;;;;5075425;28;45395;-76
2022/05/19 03:28:18;;;;;;;;;8.67;7.00;;;;;;;;5059368;28;45459;-76
2022/05/19 03:30:44;;;;;;;;;8.00;7.33;;;;;;;;5073844;27;45410;-75
2022/05/19 03:33:09;;;;;;;;;5.00;5.00;;;;;;;;5075912;28;47181;-75
2022/05/19 03:35:34;;;;;;;;;6.00;6.00;;;;;;;;5075911;27;45434;-76
2022/05/19 03:37:59;;;;;;;;;7.67;5.00;;;;;;;;5077619;28;45296;-76
2022/05/19 03:40:25;;;;;;;;;8.00;7.00;;;;;;;;5078119;28;45351;-76
2022/05/19 03:42:50;;;;;;;;;7.00;6.00;;;;;;;;5077626;28;47434;-76
2022/05/19 03:45:15;;;;;;;;;7.33;7.00;;;;;;;;5077602;27;45474;-75
2022/05/19 03:47:41;;;;;;;;;7.00;6.00;;;;;;;;5077382;28;45382;-76
2022/05/19 03:50:06;;;;;;;;;5.33;5.33;;;;;;;;5080140;27;45568;-76
2022/05/19 03:52:32;;;;;;;;;7.67;7.67;;;;;;;;5088205;27;45531;-74
2022/05/19 03:54:57;;;;;;;;;8.00;8.00;;;;;;;;5094851;27;45358;-75
2022/05/19 03:57:23;;;;;;;;;7.67;7.33;;;;;;;;5093243;27;45794;-75
2022/05/19 03:59:49;;;;;;;;;7.00;7.00;;;;;;;;5086900;27;45500;-75
2022/05/19 04:02:14;;;;;;;;;11.67;10.00;;;;;;;;5084451;27;46410;-75
2022/05/19 04:04:40;;;;;;;;;6.67;6.67;;;;;;;;5092521;27;45315;-74
2022/05/19 04:07:05;;;;;;;;;7.67;7.67;;;;;;;;5095776;27;45219;-75
2022/05/19 04:09:31;;;;;;;;;7.67;7.67;;;;;;;;5077526;27;45563;-75
2022/05/19 04:11:57;;;;;;;;;6.00;6.00;;;;;;;;5077161;27;46596;-75
2022/05/19 04:14:22;;;;;;;;;10.00;6.67;;;;;;;;5076932;28;45390;-75
2022/05/19 04:16:52;;;;;;;;;6.00;6.00;;;;;;;;5076201;28;45308;-76
2022/05/19 04:19:18;;;;;;;;;7.67;7.00;;;;;;;;5077717;27;45538;-75
2022/05/19 04:21:44;;;;;;;;;7.67;6.67;;;;;;;;5077038;27;46461;-75
2022/05/19 04:24:09;;;;;;;;;8.00;6.33;;;;;;;;5077083;27;45225;-75
2022/05/19 04:26:34;;;;;;;;;7.67;7.67;;;;;;;;5077254;27;45657;-75
2022/05/19 04:28:59;;;;;;;;;8.00;7.33;;;;;;;;5061894;28;45918;-76
2022/05/19 04:31:25;;;;;;;;;9.67;7.00;;;;;;;;5065626;27;46724;-75
2022/05/19 04:33:50;;;;;;;;;9.00;7.33;;;;;;;;5056593;28;45241;-75
2022/05/19 04:36:15;;;;;;;;;9.33;9.33;;;;;;;;5056919;28;45386;-76
2022/05/19 04:38:40;;;;;;;;;7.00;6.00;;;;;;;;5056951;28;45488;-77
2022/05/19 04:41:05;;;;;;;;;9.33;9.33;;;;;;;;5056508;28;46618;-77
2022/05/19 04:43:31;;;;;;;;;7.33;7.33;;;;;;;;5056730;28;45289;-76
2022/05/19 04:45:56;;;;;;;;;5.00;5.00;;;;;;;;5056632;28;45225;-75
2022/05/19 04:48:22;;;;;;;;;7.33;7.00;;;;;;;;5056601;28;45343;-76
2022/05/19 04:50:56;;;;;;;;;10.33;9.00;;;;;;;;5056565;28;46494;-75
2022/05/19 04:53:22;;;;;;;;;19.33;19.00;;;;;;;;5056222;28;45373;-75
2022/05/19 04:55:48;;;;;;;;;12.00;8.67;;;;;;;;5056281;28;45312;-75
2022/05/19 04:58:13;;;;;;;;;8.67;8.67;;;;;;;;5056690;28;45353;-75
2022/05/19 05:00:39;;;;;;;;;12.00;8.67;;;;;;;;5055973;28;45613;-74
2022/05/19 05:03:04;;;;;;;;;9.33;7.00;;;;;;;;5056521;28;45309;-76
2022/05/19 05:05:30;;;;;;;;;9.00;9.00;;;;;;;;5056586;28;45458;-74
2022/05/19 05:07:55;;;;;;;;;13.67;10.00;;;;;;;;5057348;28;45291;-75
2022/05/19 05:10:20;;;;;;;;;9.67;7.00;;;;;;;;5059316;28;46084;-75
2022/05/19 05:12:45;;;;;;;;;8.00;8.00;;;;;;;;5060608;28;45361;-77
2022/05/19 05:15:11;;;;;;;;;9.00;9.00;;;;;;;;5060531;28;45429;-78
2022/05/19 05:17:36;;;;;;;;;12.67;9.00;;;;;;;;5061379;28;45426;-76
2022/05/19 05:20:03;;;;;;;;;7.00;5.00;;;;;;;;5060107;28;47491;-76
2022/05/19 05:22:30;;;;;;;;;7.67;7.67;;;;;;;;5059740;28;45542;-76
2022/05/19 05:24:55;;;;;;;;;8.00;7.00;;;;;;;;5059977;28;45291;-76
2022/05/19 05:27:21;;;;;;;;;8.00;8.00;;;;;;;;5060381;28;45468;-76
2022/05/19 05:29:46;;;;;;;;;8.00;8.00;;;;;;;;5059787;28;46489;-78
2022/05/19 05:32:11;;;;;;;;;10.67;8.00;;;;;;;;5059621;28;45419;-76
2022/05/19 05:34:36;;;;;;;;;8.00;8.00;;;;;;;;5060233;28;45207;-80
2022/05/19 05:37:04;;;;;;;;;6.33;6.33;;;;;;;;5059795;28;45361;-75
2022/05/19 05:39:29;;;;;;;;;9.00;8.00;;;;;;;;5059103;28;46528;-76
2022/05/19 05:41:54;;;;;;;;;9.00;9.00;;;;;;;;5059587;28;45427;-78
2022/05/19 05:44:19;;;;;;;;;9.33;9.00;;;;;;;;5059493;28;45434;-77
2022/05/19 05:46:45;;;;;;;;;8.00;6.67;;;;;;;;5059634;28;45530;-77
2022/05/19 05:49:10;;;;;;;;;8.00;6.67;;;;;;;;5059199;28;45337;-77
2022/05/19 05:51:35;;;;;;;;;7.00;7.00;;;;;;;;5059532;28;45356;-76
2022/05/19 05:54:00;;;;;;;;;11.33;9.67;;;;;;;;5059925;28;45315;-77
2022/05/19 05:56:26;;;;;;;;;14.00;13.00;;;;;;;;5060326;28;45386;-76
2022/05/19 05:58:51;;;;;;;;;8.33;7.33;;;;;;;;5059080;28;46211;-77
2022/05/19 06:01:17;;;;;;;;;9.00;6.00;;;;;;;;5058837;28;45446;-76
2022/05/19 06:03:44;;;;;;;;;9.00;8.33;;;;;;;;5059174;28;45402;-77
2022/05/19 06:06:09;;;;;;;;;11.00;8.33;;;;;;;;5058288;28;45568;-77
2022/05/19 06:08:34;;;;;;;;;9.67;9.00;;;;;;;;5059157;28;45646;-78
2022/05/19 06:11:00;;;;;;;;;8.33;6.33;;;;;;;;5059392;28;45389;-78
2022/05/19 06:13:25;;;;;;;;;9.67;7.67;;;;;;;;5059071;28;45355;-77
2022/05/19 06:15:51;;;;;;;;;10.00;8.33;;;;;;;;5059176;28;45241;-76
2022/05/19 06:18:16;;;;;;;;;11.33;10.33;;;;;;;;5058497;28;46807;-77
2022/05/19 06:20:41;;;;;;;;;11.33;10.33;;;;;;;;5059092;28;45250;-78
2022/05/19 06:23:07;;;;;;;;;10.67;9.00;;;;;;;;5058968;28;45293;-77
2022/05/19 06:25:32;;;;;;;;;10.00;9.00;;;;;;;;5058744;28;45462;-77
2022/05/19 06:27:59;;;;;;;;;11.00;10.67;;;;;;;;5058345;28;46127;-79
2022/05/19 06:30:24;;;;;;;;;10.67;10.67;;;;;;;;5058258;28;45496;-78
2022/05/19 06:32:50;;;;;;;;;10.00;8.67;;;;;;;;5058619;28;45351;-77
2022/05/19 06:35:27;;;;;;;;;11.33;10.00;;;;;;;;5058559;28;45316;-77
2022/05/19 06:37:52;;;;;;;;;14.00;12.33;;;;;;;;5058573;28;46805;-77
2022/05/19 06:40:18;;;;;;;;;9.33;8.67;;;;;;;;5058636;28;45312;-77
2022/05/19 06:42:44;;;;;;;;;11.00;9.33;;;;;;;;5058613;28;45262;-77
2022/05/19 06:45:10;;;;;;;;;12.00;10.00;;;;;;;;5058282;28;45424;-76
2022/05/19 06:47:36;;;;;;;;;11.33;9.33;;;;;;;;5058229;28;45288;-76
2022/05/19 06:50:04;;;;;;;;;8.00;8.00;;;;;;;;5057996;28;45304;-76
2022/05/19 06:52:31;;;;;;;;;16.00;11.33;;;;;;;;5058113;28;45478;-76
2022/05/19 06:54:58;;;;;;;;;11.00;10.00;;;;;;;;5058223;28;45354;-76
2022/05/19 06:57:24;;;;;;;;;16.33;11.00;;;;;;;;5056413;28;46562;-76
2022/05/19 06:59:50;;;;;;;;;22.67;22.00;;;;;;;;5057945;28;45241;-76
2022/05/19 07:02:16;;;;;;;;;11.00;11.00;;;;;;;;5057848;28;45325;-76
2022/05/19 07:04:41;;;;;;;;;12.00;9.67;;;;;;;;5058146;28;45214;-77
2022/05/19 07:07:06;;;;;;;;;12.33;11.00;;;;;;;;5057877;28;45613;-77
2022/05/19 07:09:33;;;;;;;;;16.00;12.33;;;;;;;;5057634;28;45313;-76
2022/05/19 07:12:00;;;;;;;;;12.00;10.33;;;;;;;;5058151;28;45323;-75
2022/05/19 07:14:26;;;;;;;;;11.00;11.00;;;;;;;;5058021;28;45442;-76
2022/05/19 07:16:51;;;;;;;;;11.67;11.33;;;;;;;;5057195;28;47537;-76
2022/05/19 07:22:00;;;;;;;;;34.00;30.33;;;;;;;;5057725;28;45315;-76
2022/05/19 07:24:25;;;;;;;;;12.33;12.33;;;;;;;;5057609;28;45423;-75
2022/05/19 07:26:52;;;;;;;;;13.33;11.33;;;;;;;;5057521;28;46225;-75
2022/05/19 07:29:18;;;;;;;;;12.00;12.00;;;;;;;;5057558;28;45292;-76
2022/05/19 07:31:43;;;;;;;;;12.33;11.67;;;;;;;;5056940;28;45281;-76
2022/05/19 07:34:10;;;;;;;;;12.00;12.00;;;;;;;;5057930;28;45228;-77
2022/05/19 07:36:35;;;;;;;;;14.00;13.00;;;;;;;;5057191;28;46440;-75
2022/05/19 07:39:01;;;;;;;;;13.67;11.00;;;;;;;;5057439;28;45311;-75
2022/05/19 07:41:27;;;;;;;;;10.00;10.00;;;;;;;;5057359;28;45685;-77
2022/05/19 07:43:53;;;;;;;;;12.67;11.00;;;;;;;;5057681;28;45277;-75
2022/05/19 07:46:18;;;;;;;;;14.67;14.00;;;;;;;;5057099;28;46672;-77
2022/05/19 07:48:44;;;;;;;;;10.33;9.00;;;;;;;;5057150;28;45328;-77
2022/05/19 07:51:09;;;;;;;;;16.33;12.33;;;;;;;;5057517;28;45294;-77
2022/05/19 07:53:34;;;;;;;;;15.00;12.67;;;;;;;;5057514;28;45481;-76
2022/05/19 07:56:00;;;;;;;;;14.00;12.67;;;;;;;;5056913;28;47424;-77
2022/05/19 07:58:25;;;;;;;;;12.33;9.33;;;;;;;;5055538;28;45371;-77
2022/05/19 08:00:52;;;;;;;;;15.67;13.33;;;;;;;;5057109;28;45363;-76
2022/05/19 08:03:17;;;;;;;;;12.33;12.33;;;;;;;;5057311;28;45466;-77
2022/05/19 08:05:43;;;;;;;;;16.00;14.67;;;;;;;;5056531;28;47202;-77
2022/05/19 08:08:08;;;;;;;;;17.00;15.67;;;;;;;;5055877;28;45193;-78
2022/05/19 08:10:33;;;;;;;;;12.00;10.67;;;;;;;;5057141;28;45283;-76
2022/05/19 08:15:45;;;;;;;;;18.33;16.33;;;;;;;;5056609;28;45436;-77
2022/05/19 08:18:18;;;;;;;;;17.00;15.00;;;;;;;;5056822;28;45412;-77
2022/05/19 08:20:44;;;;;;;;;14.33;12.00;;;;;;;;5056803;28;45430;-77
2022/05/19 08:23:13;;;;;;;;;15.33;14.33;;;;;;;;5055598;28;45518;-77
2022/05/19 08:25:39;;;;;;;;;16.33;14.67;;;;;;;;5056666;28;45405;-76
2022/05/19 08:28:04;;;;;;;;;14.33;14.33;;;;;;;;5056306;28;45414;-76
2022/05/19 08:30:30;;;;;;;;;12.00;12.00;;;;;;;;5056747;28;45478;-77
2022/05/19 08:32:55;;;;;;;;;13.33;11.00;;;;;;;;5056753;28;45485;-77
2022/05/19 08:35:21;;;;;;;;;14.33;14.00;;;;;;;;5056466;28;46452;-76
2022/05/19 08:37:46;;;;;;;;;12.00;11.00;;;;;;;;5056656;28;45506;-78
2022/05/19 08:40:12;;;;;;;;;11.33;11.33;;;;;;;;5056581;28;45354;-79
2022/05/19 08:42:39;;;;;;;;;14.67;12.00;;;;;;;;5073100;28;45415;-79
2022/05/19 08:45:08;;;;;;;;;13.33;13.33;;;;;;;;5060027;28;45308;-76
2022/05/19 08:47:34;;;;;;;;;10.67;10.33;;;;;;;;5059219;28;45457;-77
2022/05/19 08:50:06;;;;;;;;;13.33;12.67;;;;;;;;5060295;28;45399;-77
2022/05/19 08:52:37;;;;;;;;;13.67;12.67;;;;;;;;5060233;28;45238;-78
2022/05/19 08:55:03;;;;;;;;;15.33;14.00;;;;;;;;5059182;28;45434;-79
2022/05/19 08:57:37;;;;;;;;;22.67;20.00;;;;;;;;5059696;28;45265;-80
2022/05/19 09:00:02;;;;;;;;;16.00;14.00;;;;;;;;5060142;28;45316;-78
2022/05/19 09:02:34;;;;;;;;;14.00;13.67;;;;;;;;5060033;28;45441;-75
2022/05/19 09:05:00;;;;;;;;;15.00;13.33;;;;;;;;5059758;28;47610;-79
2022/05/19 09:10:21;;;;;;;;;34.33;32.67;;;;;;;;5059760;28;45323;-79
2022/05/19 09:12:47;;;;;;;;;18.00;14.00;;;;;;;;5059877;28;45449;-79
2022/05/19 09:15:12;;;;;;;;;15.00;14.33;;;;;;;;5059672;28;46158;-77
2022/05/19 09:17:40;;;;;;;;;17.67;14.33;;;;;;;;5059361;28;45345;-78
2022/05/19 09:20:09;;;;;;;;;14.00;14.00;;;;;;;;5059486;28;45734;-78
2022/05/19 09:22:34;;;;;;;;;10.00;9.67;;;;;;;;5059936;28;45741;-77
2022/05/19 09:25:03;;;;;;;;;11.00;9.67;;;;;;;;5059174;28;47446;-78
2022/05/19 09:27:29;;;;;;;;;12.00;11.00;;;;;;;;5059461;28;45578;-78
2022/05/19 09:29:55;;;;;;;;;12.00;10.33;;;;;;;;5059372;28;45301;-75
2022/05/19 09:32:29;;;;;;;;;10.33;9.00;;;;;;;;5059398;28;45327;-75
2022/05/19 09:35:09;;;;;;;;;8.00;8.00;;;;;;;;5059455;28;46456;-76
2022/05/19 09:37:40;;;;;;;;;10.00;8.33;;;;;;;;5059376;28;45315;-75
2022/05/19 09:40:12;;;;;;;;;10.33;10.33;;;;;;;;5059946;28;45233;-76
2022/05/19 09:42:55;;;;;;;;;10.67;10.67;;;;;;;;5059460;28;45334;-78
2022/05/19 09:45:21;;;;;;;;;9.00;7.00;;;;;;;;5058901;28;45521;-77
2022/05/19 09:47:49;;;;;;;;;9.33;7.00;;;;;;;;5059176;28;45262;-77
2022/05/19 09:50:18;;;;;;;;;12.33;12.00;;;;;;;;5059041;28;45426;-75
2022/05/19 09:52:45;;;;;;;;;32.33;29.00;;;;;;;;5059165;28;45237;-76
2022/05/19 09:55:12;;;;;;;;;6.00;6.00;;;;;;;;5058674;28;45299;-77
2022/05/19 09:57:37;;;;;;;;;8.33;7.00;;;;;;;;5058456;28;45457;-76
2022/05/19 10:00:10;;;;;;;;;8.00;6.00;;;;;;;;5059162;28;45339;-76
2022/05/19 10:02:37;;;;;;;;;7.00;6.67;;;;;;;;5058849;28;45642;-82
2022/05/19 10:05:17;;;;;;;;;10.33;7.67;;;;;;;;5058722;28;47431;-79
2022/05/19 10:07:45;;;;;;;;;6.00;6.00;;;;;;;;5059054;28;45402;-80
2022/05/19 10:10:23;;;;;;;;;7.00;7.00;;;;;;;;5059115;28;45382;-76
2022/05/19 10:12:48;;;;;;;;;6.00;6.00;;;;;;;;5059050;28;45526;-77
2022/05/19 10:15:15;;;;;;;;;4.33;4.33;;;;;;;;5058642;28;46376;-77
2022/05/19 10:17:47;;;;;;;;;5.67;5.67;;;;;;;;5058801;28;45287;-77
2022/05/19 10:20:21;;;;;;;;;6.00;4.67;;;;;;;;5058930;28;45452;-78
2022/05/19 10:22:50;;;;;;;;;4.00;3.67;;;;;;;;5058894;28;45315;-77
2022/05/19 10:25:17;;;;;;;;;8.00;4.67;;;;;;;;5058562;28;46189;-77
2022/05/19 10:31:03;;;;;;;;;5.67;5.00;;;;;;;;5058828;28;45428;-75
2022/05/19 10:33:44;;;;;;;;;4.33;4.00;;;;;;;;5058808;28;45373;-77
2022/05/19 10:36:33;;;;;;;;;6.67;6.67;;;;;;;;5058212;28;46523;-77
2022/05/19 10:39:16;;;;;;;;;3.00;3.00;;;;;;;;5058089;28;45225;-76
2022/05/19 10:42:05;;;;;;;;;3.00;3.00;;;;;;;;5091111;27;45276;-75
2022/05/19 10:44:33;;;;;;;;;4.00;4.00;;;;;;;;5078868;27;45277;-77
2022/05/19 10:47:10;;;;;;;;;4.00;4.00;;;;;;;;5079114;27;46673;-76
2022/05/19 10:49:53;;;;;;;;;5.33;5.33;;;;;;;;5078631;28;45405;-75
2022/05/19 10:52:36;;;;;;;;;4.00;4.00;;;;;;;;5078571;28;45367;-76
2022/05/19 10:55:17;;;;;;;;;5.67;4.67;;;;;;;;5078800;27;45752;-77
2022/05/19 10:57:51;;;;;;;;;6.33;3.33;;;;;;;;5077911;27;46614;-77
2022/05/19 11:00:26;;;;;;;;;5.00;5.00;;;;;;;;5078450;27;45489;-75
2022/05/19 11:03:23;;;;;;;;;5.00;3.00;;;;;;;;5077725;27;45312;-78
2022/05/19 11:05:49;;;;;;;;;3.67;3.00;;;;;;;;5075732;27;45524;-82
2022/05/19 11:08:33;;;;;;;;;3.00;3.00;;;;;;;;5095769;27;46640;-81
2022/05/19 11:11:21;;;;;;;;;9.00;9.00;;;;;;;;5086922;27;45679;-72
2022/05/19 11:13:56;;;;;;;;;3.67;3.67;;;;;;;;5073757;27;45457;-72
2022/05/19 11:16:27;;;;;;;;;10.00;9.67;;;;;;;;5098421;27;45489;-72
2022/05/19 11:19:02;;;;;;;;;5.00;5.00;;;;;;;;5098129;27;45544;-77
2022/05/19 11:21:40;;;;;;;;;5.00;4.00;;;;;;;;5080237;27;45426;-84
2022/05/19 11:24:17;;;;;;;;;4.00;4.00;;;;;;;;5084215;27;45403;-73
2022/05/19 11:26:45;;;;;;;;;6.67;5.33;;;;;;;;5083753;27;45356;-72
2022/05/19 11:29:30;;;;;;;;;5.00;5.00;;;;;;;;5077668;27;46877;-74
2022/05/19 11:32:05;;;;;;;;;5.00;4.00;;;;;;;;5082212;27;45764;-71
2022/05/19 11:34:41;;;;;;;;;17.67;17.67;;;;;;;;5081953;27;45300;-75
2022/05/19 11:37:15;;;;;;;;;7.33;6.00;;;;;;;;5081036;27;45424;-75
2022/05/19 11:39:48;;;;;;;;;6.00;4.00;;;;;;;;5077378;27;45883;-74
2022/05/19 11:42:21;;;;;;;;;3.67;3.67;;;;;;;;5077132;27;45476;-75
2022/05/19 11:44:46;;;;;;;;;7.00;4.67;;;;;;;;5077369;27;45454;-75
2022/05/19 11:47:15;;;;;;;;;6.67;6.67;;;;;;;;5077216;27;45200;-75
2022/05/19 11:55:18;;;;;;;;;2.67;2.67;;;;;;;;5095625;27;45536;-74
2022/05/19 11:58:04;;;;;;;;;3.00;3.00;;;;;;;;5097563;27;45519;-74
2022/05/19 12:00:33;;;;;;;;;5.00;5.00;;;;;;;;5097263;27;46396;-75
2022/05/19 12:02:58;;;;;;;;;4.67;3.67;;;;;;;;5097099;27;45527;-73
2022/05/19 12:05:29;;;;;;;;;5.00;4.00;;;;;;;;5090803;27;45351;-74
2022/05/19 12:07:56;;;;;;;;;3.00;3.00;;;;;;;;5097685;27;45432;-73
2022/05/19 12:10:50;;;;;;;;;2.00;2.00;;;;;;;;5097054;27;45473;-72
2022/05/19 12:13:16;;;;;;;;;6.00;3.00;;;;;;;;5074365;28;45384;-75
2022/05/19 12:15:54;;;;;;;;;3.00;2.33;;;;;;;;5074494;28;45458;-75
2022/05/19 12:18:27;;;;;;;;;1.67;1.67;;;;;;;;5077773;28;45441;-74
2022/05/19 12:21:01;;;;;;;;;1.33;1.00;;;;;;;;5064314;28;45649;-74
2022/05/19 12:23:26;;;;;;;;;4.33;3.00;;;;;;;;5057499;28;45455;-75
2022/05/19 12:25:53;;;;;;;;;2.00;2.00;;;;;;;;5057851;28;45634;-75
2022/05/19 12:28:19;;;;;;;;;4.33;1.00;;;;;;;;5057905;28;45385;-74
2022/05/19 12:33:48;;;;;;;;;2.00;2.00;;;;;;;;5077925;28;45384;-74
2022/05/19 12:36:17;;;;;;;;;1.00;1.00;;;;;;;;5077980;28;45496;-75
2022/05/19 12:38:43;;;;;;;;;2.00;2.00;;;;;;;;5078155;28;45411;-75
2022/05/19 12:41:24;;;;;;;;;3.00;2.00;;;;;;;;5077665;28;45344;-74
2022/05/19 12:43:51;;;;;;;;;2.00;2.00;;;;;;;;5077294;28;45437;-72
2022/05/19 12:46:47;;;;;;;;;1.33;1.00;;;;;;;;5068626;28;45564;-72
2022/05/19 12:49:20;;;;;;;;;5.00;2.00;;;;;;;;4958508;28;45395;-73
2022/05/19 12:51:50;;;;;;;;;3.00;2.00;;;;;;;;4973365;28;46193;-73
2022/05/19 12:54:16;;;;;;;;;2.00;2.00;;;;;;;;4977777;28;45497;-72
2022/05/19 12:56:41;;;;;;;;;7.00;4.00;;;;;;;;4977922;28;45537;-75
2022/05/19 12:59:07;;;;;;;;;2.00;2.00;;;;;;;;4977900;28;45510;-74
2022/05/19 13:01:44;;;;;;;;;7.33;7.33;;;;;;;;4977380;28;45540;-74
2022/05/19 13:04:10;;;;;;;;;2.67;2.67;;;;;;;;4988705;28;45406;-75
2022/05/19 13:06:37;;;;;;;;;3.00;3.00;;;;;;;;4995320;28;45652;-74
2022/05/19 13:09:04;;;;;;;;;3.33;3.33;;;;;;;;4997257;28;45456;-74
2022/05/19 13:11:35;;;;;;;;;4.67;3.00;;;;;;;;4995507;28;46346;-74
2022/05/19 13:14:13;;;;;;;;;4.00;4.00;;;;;;;;4969749;28;45388;-74
2022/05/19 13:16:41;;;;;;;;;3.00;2.00;;;;;;;;4997442;28;45446;-74
2022/05/19 13:19:17;;;;;;;;;3.00;3.00;;;;;;;;4979483;28;45512;-73
2022/05/19 13:21:51;;;;;;;;;3.00;3.00;;;;;;;;4976382;28;46670;-73
2022/05/19 13:24:17;;;;;;;;;2.00;2.00;;;;;;;;4978089;28;45476;-72
2022/05/19 13:26:43;;;;;;;;;3.33;3.33;;;;;;;;5076405;28;45315;-73
2022/05/19 13:32:08;;;;;;;;;2.00;2.00;;;;;;;;5059388;28;45463;-73
2022/05/19 13:34:51;;;;;;;;;5.00;3.00;;;;;;;;5059288;28;45276;-73
2022/05/19 13:37:36;;;;;;;;;3.00;3.00;;;;;;;;5070241;27;45240;-74
2022/05/19 13:40:12;;;;;;;;;4.00;4.00;;;;;;;;5081465;27;45368;-74
2022/05/19 13:42:38;;;;;;;;;3.67;3.67;;;;;;;;5078928;27;46436;-74
2022/05/19 13:45:04;;;;;;;;;5.00;3.00;;;;;;;;5088751;27;45412;-74
2022/05/19 13:47:29;;;;;;;;;3.33;3.33;;;;;;;;5088452;27;45882;-75
2022/05/19 13:49:59;;;;;;;;;4.33;4.33;;;;;;;;5087655;27;45454;-74
2022/05/19 13:52:27;;;;;;;;;3.67;3.67;;;;;;;;5099380;27;46729;-74
2022/05/19 13:54:53;;;;;;;;;4.67;4.33;;;;;;;;5092470;27;45499;-74
2022/05/19 13:57:24;;;;;;;;;4.67;3.33;;;;;;;;5079012;28;45339;-74
2022/05/19 13:59:51;;;;;;;;;3.00;3.00;;;;;;;;5079083;27;45471;-75
2022/05/19 14:02:36;;;;;;;;;3.50;3.50;;;;;;;;5078695;27;45524;-75
2022/05/19 14:05:02;;;;;;;;;7.00;7.00;;;;;;;;5077854;28;45430;-75
2022/05/19 14:07:28;;;;;;;;;4.67;4.00;;;;;;;;5078831;27;45419;-74
2022/05/19 14:09:59;;;;;;;;;5.33;2.67;;;;;;;;5078798;27;45512;-74
2022/05/19 14:12:41;;;;;;;;;4.00;3.67;;;;;;;;5078567;27;45728;-74
2022/05/19 14:15:07;;;;;;;;;3.00;3.00;;;;;;;;5078650;27;45457;-74
2022/05/19 14:17:56;;;;;;;;;6.00;6.00;;;;;;;;5078539;27;45363;-75
2022/05/19 14:20:24;;;;;;;;;7.00;3.67;;;;;;;;5016044;28;45516;-74
2022/05/19 14:22:50;;;;;;;;;3.00;3.00;;;;;;;;5017219;28;45768;-75
2022/05/19 14:25:17;;;;;;;;;3.00;3.00;;;;;;;;5018517;28;45725;-73
2022/05/19 14:27:44;;;;;;;;;5.00;3.67;;;;;;;;5015337;28;45386;-74
2022/05/19 14:30:14;;;;;;;;;4.00;4.00;;;;;;;;5019278;28;45626;-74
2022/05/19 14:32:55;;;;;;;;;5.00;3.33;;;;;;;;5021870;28;46611;-75
2022/05/19 14:35:23;;;;;;;;;2.33;1.67;;;;;;;;5033210;28;45443;-75
2022/05/19 14:37:52;;;;;;;;;3.00;3.00;;;;;;;;5029652;28;45432;-76
2022/05/19 14:43:25;;;;;;;;;3.33;3.33;;;;;;;;5015503;28;45944;-76
2022/05/19 14:46:00;;;;;;;;;4.67;4.67;;;;;;;;5032257;28;45263;-76
2022/05/19 14:48:25;;;;;;;;;3.33;3.33;;;;;;;;5035274;28;45494;-76
2022/05/19 14:50:54;;;;;;;;;4.33;4.00;;;;;;;;5020692;28;45392;-76
2022/05/19 14:53:23;;;;;;;;;4.67;4.67;;;;;;;;5016521;28;45419;-75
2022/05/19 14:55:54;;;;;;;;;2.00;2.00;;;;;;;;5020624;28;45494;-75
2022/05/19 14:58:21;;;;;;;;;2.33;2.33;;;;;;;;5090044;27;45510;-74
2022/05/19 15:00:46;;;;;;;;;6.00;5.33;;;;;;;;5092228;27;46730;-74
2022/05/19 15:03:12;;;;;;;;;5.00;3.00;;;;;;;;5085558;27;45298;-75
2022/05/19 15:05:39;;;;;;;;;4.67;4.67;;;;;;;;5080416;27;45506;-75
2022/05/19 15:08:06;;;;;;;;;4.33;3.00;;;;;;;;5098229;27;45632;-75
2022/05/19 15:10:32;;;;;;;;;4.00;2.33;;;;;;;;5090369;27;45398;-75
2022/05/19 15:12:58;;;;;;;;;2.00;2.00;;;;;;;;5077452;27;45536;-75